sensor_id;sensor_type;location;lat;lon;timestamp;temperature;humidity
46139;DHT22;32398;49.112;8.598;2022-09-06T00:00:15;23.00;59.00
46139;DHT22;32398;49.112;8.598;2022-09-06T00:02:42;22.90;59.00
46139;DHT22;32398;49.112;8.598;2022-09-06T00:05:09;22.90;59.10
46139;DHT22;32398;49.112;8.598;2022-09-06T00:07:36;22.90;59.10
46139;DHT22;32398;49.112;8.598;2022-09-06T00:10:03;22.90;59.10
46139;DHT22;32398;49.112;8.598;2022-09-06T00:12:30;22.80;59.30
46139;DHT22;32398;49.112;8.598;2022-09-06T00:14:57;22.80;59.30
46139;DHT22;32398;49.112;8.598;2022-09-06T00:17:25;22.80;59.40
46139;DHT22;32398;49.112;8.598;2022-09-06T00:19:51;22.80;59.50
46139;DHT22;32398;49.112;8.598;2022-09-06T00:22:18;22.70;59.40
46139;DHT22;32398;49.112;8.598;2022-09-06T00:24:45;22.70;59.60
46139;DHT22;32398;49.112;8.598;2022-09-06T00:27:11;22.70;59.70
46139;DHT22;32398;49.112;8.598;2022-09-06T00:29:38;22.70;59.80
46139;DHT22;32398;49.112;8.598;2022-09-06T00:32:04;22.60;59.80
46139;DHT22;32398;49.112;8.598;2022-09-06T00:34:32;22.60;59.90
46139;DHT22;32398;49.112;8.598;2022-09-06T00:36:59;22.60;59.90
46139;DHT22;32398;49.112;8.598;2022-09-06T00:39:25;22.50;59.90
46139;DHT22;32398;49.112;8.598;2022-09-06T00:41:52;22.50;60.10
46139;DHT22;32398;49.112;8.598;2022-09-06T00:44:18;22.50;60.30
46139;DHT22;32398;49.112;8.598;2022-09-06T00:46:45;22.50;60.30
46139;DHT22;32398;49.112;8.598;2022-09-06T00:49:14;22.40;60.40
46139;DHT22;32398;49.112;8.598;2022-09-06T00:51:50;22.40;60.60
46139;DHT22;32398;49.112;8.598;2022-09-06T00:54:17;22.40;61.30
46139;DHT22;32398;49.112;8.598;2022-09-06T00:56:43;22.40;60.70
46139;DHT22;32398;49.112;8.598;2022-09-06T00:59:11;22.40;60.70
46139;DHT22;32398;49.112;8.598;2022-09-06T01:01:37;22.30;60.90
46139;DHT22;32398;49.112;8.598;2022-09-06T01:04:04;22.30;61.00
46139;DHT22;32398;49.112;8.598;2022-09-06T01:06:33;22.30;61.00
46139;DHT22;32398;49.112;8.598;2022-09-06T01:09:07;22.30;60.90
46139;DHT22;32398;49.112;8.598;2022-09-06T01:11:39;22.30;61.20
46139;DHT22;32398;49.112;8.598;2022-09-06T01:14:09;22.20;61.30
46139;DHT22;32398;49.112;8.598;2022-09-06T01:16:41;22.20;61.40
46139;DHT22;32398;49.112;8.598;2022-09-06T01:19:15;22.20;61.40
46139;DHT22;32398;49.112;8.598;2022-09-06T01:21:46;22.10;61.40
46139;DHT22;32398;49.112;8.598;2022-09-06T01:24:22;22.10;61.50
46139;DHT22;32398;49.112;8.598;2022-09-06T01:27:00;22.10;61.60
46139;DHT22;32398;49.112;8.598;2022-09-06T01:29:33;22.10;61.60
46139;DHT22;32398;49.112;8.598;2022-09-06T01:32:03;22.10;61.80
46139;DHT22;32398;49.112;8.598;2022-09-06T01:34:33;22.10;62.10
46139;DHT22;32398;49.112;8.598;2022-09-06T01:37:01;22.00;62.00
46139;DHT22;32398;49.112;8.598;2022-09-06T01:39:31;22.00;61.90
46139;DHT22;32398;49.112;8.598;2022-09-06T01:41:59;22.00;62.00
46139;DHT22;32398;49.112;8.598;2022-09-06T01:44:28;22.00;62.10
46139;DHT22;32398;49.112;8.598;2022-09-06T01:46:57;22.00;62.00
46139;DHT22;32398;49.112;8.598;2022-09-06T01:49:29;21.90;62.00
46139;DHT22;32398;49.112;8.598;2022-09-06T01:52:01;22.00;62.20
46139;DHT22;32398;49.112;8.598;2022-09-06T01:54:36;21.90;62.40
46139;DHT22;32398;49.112;8.598;2022-09-06T01:57:11;21.90;62.70
46139;DHT22;32398;49.112;8.598;2022-09-06T01:59:49;21.90;63.10
46139;DHT22;32398;49.112;8.598;2022-09-06T02:02:23;21.90;63.20
46139;DHT22;32398;49.112;8.598;2022-09-06T02:04:51;21.90;63.20
46139;DHT22;32398;49.112;8.598;2022-09-06T02:07:23;21.80;63.60
46139;DHT22;32398;49.112;8.598;2022-09-06T02:09:52;21.80;63.60
46139;DHT22;32398;49.112;8.598;2022-09-06T02:12:20;21.80;63.70
46139;DHT22;32398;49.112;8.598;2022-09-06T02:14:49;21.80;63.90
46139;DHT22;32398;49.112;8.598;2022-09-06T02:17:18;21.80;64.10
46139;DHT22;32398;49.112;8.598;2022-09-06T02:19:47;21.80;64.10
46139;DHT22;32398;49.112;8.598;2022-09-06T02:22:16;21.80;64.00
46139;DHT22;32398;49.112;8.598;2022-09-06T02:24:44;21.70;63.90
46139;DHT22;32398;49.112;8.598;2022-09-06T02:27:12;21.70;64.10
46139;DHT22;32398;49.112;8.598;2022-09-06T02:29:39;21.70;64.20
46139;DHT22;32398;49.112;8.598;2022-09-06T02:32:06;21.70;64.60
46139;DHT22;32398;49.112;8.598;2022-09-06T02:34:36;21.70;64.90
46139;DHT22;32398;49.112;8.598;2022-09-06T02:37:05;21.70;65.30
46139;DHT22;32398;49.112;8.598;2022-09-06T02:39:32;21.70;65.50
46139;DHT22;32398;49.112;8.598;2022-09-06T02:41:59;21.60;65.70
46139;DHT22;32398;49.112;8.598;2022-09-06T02:44:26;21.60;65.90
46139;DHT22;32398;49.112;8.598;2022-09-06T02:46:53;21.60;66.10
46139;DHT22;32398;49.112;8.598;2022-09-06T02:49:19;21.60;66.30
46139;DHT22;32398;49.112;8.598;2022-09-06T02:51:46;21.60;66.50
46139;DHT22;32398;49.112;8.598;2022-09-06T02:54:14;21.50;66.50
46139;DHT22;32398;49.112;8.598;2022-09-06T02:56:40;21.50;66.60
46139;DHT22;32398;49.112;8.598;2022-09-06T02:59:07;21.50;66.60
46139;DHT22;32398;49.112;8.598;2022-09-06T03:01:34;21.50;66.60
46139;DHT22;32398;49.112;8.598;2022-09-06T03:04:00;21.50;66.80
46139;DHT22;32398;49.112;8.598;2022-09-06T03:06:27;21.50;67.10
46139;DHT22;32398;49.112;8.598;2022-09-06T03:08:53;21.50;67.40
46139;DHT22;32398;49.112;8.598;2022-09-06T03:11:21;21.40;67.50
46139;DHT22;32398;49.112;8.598;2022-09-06T03:13:48;21.40;67.60
46139;DHT22;32398;49.112;8.598;2022-09-06T03:16:15;21.40;67.80
46139;DHT22;32398;49.112;8.598;2022-09-06T03:18:42;21.40;68.00
46139;DHT22;32398;49.112;8.598;2022-09-06T03:21:09;21.40;69.10
46139;DHT22;32398;49.112;8.598;2022-09-06T03:23:35;21.40;68.40
46139;DHT22;32398;49.112;8.598;2022-09-06T03:26:03;21.30;68.40
46139;DHT22;32398;49.112;8.598;2022-09-06T03:28:31;21.20;72.00
46139;DHT22;32398;49.112;8.598;2022-09-06T03:30:58;21.20;72.30
46139;DHT22;32398;49.112;8.598;2022-09-06T03:33:25;21.10;71.70
46139;DHT22;32398;49.112;8.598;2022-09-06T03:35:52;21.00;71.70
46139;DHT22;32398;49.112;8.598;2022-09-06T03:38:19;21.00;72.00
46139;DHT22;32398;49.112;8.598;2022-09-06T03:40:46;21.00;72.10
46139;DHT22;32398;49.112;8.598;2022-09-06T03:43:13;21.00;72.10
46139;DHT22;32398;49.112;8.598;2022-09-06T03:45:44;21.00;72.20
46139;DHT22;32398;49.112;8.598;2022-09-06T03:48:11;21.00;72.10
46139;DHT22;32398;49.112;8.598;2022-09-06T03:50:37;20.90;72.00
46139;DHT22;32398;49.112;8.598;2022-09-06T03:53:04;20.90;72.10
46139;DHT22;32398;49.112;8.598;2022-09-06T03:55:30;20.90;72.10
46139;DHT22;32398;49.112;8.598;2022-09-06T03:57:57;20.90;72.30
46139;DHT22;32398;49.112;8.598;2022-09-06T04:00:24;20.80;72.20
46139;DHT22;32398;49.112;8.598;2022-09-06T04:02:51;20.80;72.20
46139;DHT22;32398;49.112;8.598;2022-09-06T04:05:18;20.80;72.30
46139;DHT22;32398;49.112;8.598;2022-09-06T04:07:45;20.80;72.30
46139;DHT22;32398;49.112;8.598;2022-09-06T04:10:11;20.70;72.20
46139;DHT22;32398;49.112;8.598;2022-09-06T04:12:38;20.70;72.30
46139;DHT22;32398;49.112;8.598;2022-09-06T04:15:05;20.70;72.20
46139;DHT22;32398;49.112;8.598;2022-09-06T04:17:31;20.70;72.30
46139;DHT22;32398;49.112;8.598;2022-09-06T04:19:59;20.70;72.40
46139;DHT22;32398;49.112;8.598;2022-09-06T04:22:26;20.60;72.40
46139;DHT22;32398;49.112;8.598;2022-09-06T04:24:52;20.60;72.50
46139;DHT22;32398;49.112;8.598;2022-09-06T04:27:19;20.60;72.50
46139;DHT22;32398;49.112;8.598;2022-09-06T04:29:45;20.50;72.20
46139;DHT22;32398;49.112;8.598;2022-09-06T04:32:12;20.50;72.30
46139;DHT22;32398;49.112;8.598;2022-09-06T04:34:38;20.50;72.40
46139;DHT22;32398;49.112;8.598;2022-09-06T04:37:06;20.50;72.60
46139;DHT22;32398;49.112;8.598;2022-09-06T04:39:33;20.50;72.70
46139;DHT22;32398;49.112;8.598;2022-09-06T04:41:59;20.40;72.70
46139;DHT22;32398;49.112;8.598;2022-09-06T04:44:26;20.40;72.90
46139;DHT22;32398;49.112;8.598;2022-09-06T04:47:00;20.40;72.90
46139;DHT22;32398;49.112;8.598;2022-09-06T04:49:28;20.30;72.90
46139;DHT22;32398;49.112;8.598;2022-09-06T04:51:54;20.30;72.90
46139;DHT22;32398;49.112;8.598;2022-09-06T04:54:22;20.30;73.00
46139;DHT22;32398;49.112;8.598;2022-09-06T04:56:48;20.30;73.20
46139;DHT22;32398;49.112;8.598;2022-09-06T04:59:15;20.20;73.20
46139;DHT22;32398;49.112;8.598;2022-09-06T05:01:41;20.20;73.20
46139;DHT22;32398;49.112;8.598;2022-09-06T05:04:08;20.20;73.30
46139;DHT22;32398;49.112;8.598;2022-09-06T05:06:35;20.20;73.30
46139;DHT22;32398;49.112;8.598;2022-09-06T05:09:02;20.10;73.30
46139;DHT22;32398;49.112;8.598;2022-09-06T05:11:30;20.10;73.30
46139;DHT22;32398;49.112;8.598;2022-09-06T05:13:56;20.10;73.40
46139;DHT22;32398;49.112;8.598;2022-09-06T05:16:23;20.10;73.40
46139;DHT22;32398;49.112;8.598;2022-09-06T05:18:49;20.00;73.40
46139;DHT22;32398;49.112;8.598;2022-09-06T05:21:16;20.00;73.50
46139;DHT22;32398;49.112;8.598;2022-09-06T05:23:42;20.00;73.60
46139;DHT22;32398;49.112;8.598;2022-09-06T05:26:09;20.00;73.60
46139;DHT22;32398;49.112;8.598;2022-09-06T05:28:37;19.90;73.50
46139;DHT22;32398;49.112;8.598;2022-09-06T05:31:04;20.00;73.70
46139;DHT22;32398;49.112;8.598;2022-09-06T05:33:31;20.00;73.80
46139;DHT22;32398;49.112;8.598;2022-09-06T05:35:58;20.00;73.80
46139;DHT22;32398;49.112;8.598;2022-09-06T05:38:24;19.90;73.90
46139;DHT22;32398;49.112;8.598;2022-09-06T05:40:51;19.90;74.00
46139;DHT22;32398;49.112;8.598;2022-09-06T05:43:18;19.90;74.00
46139;DHT22;32398;49.112;8.598;2022-09-06T05:45:45;19.90;74.00
46139;DHT22;32398;49.112;8.598;2022-09-06T05:48:12;19.90;74.00
46139;DHT22;32398;49.112;8.598;2022-09-06T05:50:38;19.80;73.90
46139;DHT22;32398;49.112;8.598;2022-09-06T05:53:05;19.80;74.10
46139;DHT22;32398;49.112;8.598;2022-09-06T05:55:31;19.80;74.20
46139;DHT22;32398;49.112;8.598;2022-09-06T05:57:58;19.80;74.10
46139;DHT22;32398;49.112;8.598;2022-09-06T06:00:24;19.80;74.20
46139;DHT22;32398;49.112;8.598;2022-09-06T06:02:52;19.80;74.30
46139;DHT22;32398;49.112;8.598;2022-09-06T06:05:19;19.80;74.40
46139;DHT22;32398;49.112;8.598;2022-09-06T06:07:45;19.80;74.40
46139;DHT22;32398;49.112;8.598;2022-09-06T06:10:12;19.80;74.50
46139;DHT22;32398;49.112;8.598;2022-09-06T06:12:39;19.80;74.60
46139;DHT22;32398;49.112;8.598;2022-09-06T06:15:05;19.80;74.70
46139;DHT22;32398;49.112;8.598;2022-09-06T06:17:32;19.70;74.70
46139;DHT22;32398;49.112;8.598;2022-09-06T06:20:00;19.70;74.70
46139;DHT22;32398;49.112;8.598;2022-09-06T06:22:27;19.70;74.80
46139;DHT22;32398;49.112;8.598;2022-09-06T06:24:53;19.70;74.70
46139;DHT22;32398;49.112;8.598;2022-09-06T06:27:20;19.80;74.90
46139;DHT22;32398;49.112;8.598;2022-09-06T06:29:47;19.70;74.80
46139;DHT22;32398;49.112;8.598;2022-09-06T06:32:14;19.70;74.90
46139;DHT22;32398;49.112;8.598;2022-09-06T06:34:41;19.70;74.90
46139;DHT22;32398;49.112;8.598;2022-09-06T06:37:09;19.70;75.00
46139;DHT22;32398;49.112;8.598;2022-09-06T06:39:35;19.70;75.00
46139;DHT22;32398;49.112;8.598;2022-09-06T06:42:03;19.70;75.10
46139;DHT22;32398;49.112;8.598;2022-09-06T06:44:29;19.70;75.10
46139;DHT22;32398;49.112;8.598;2022-09-06T06:46:56;19.80;75.20
46139;DHT22;32398;49.112;8.598;2022-09-06T06:49:26;19.70;75.20
46139;DHT22;32398;49.112;8.598;2022-09-06T06:51:52;19.70;75.20
46139;DHT22;32398;49.112;8.598;2022-09-06T06:54:20;19.70;75.30
46139;DHT22;32398;49.112;8.598;2022-09-06T06:56:47;19.70;75.30
46139;DHT22;32398;49.112;8.598;2022-09-06T06:59:13;19.70;75.20
46139;DHT22;32398;49.112;8.598;2022-09-06T07:01:40;19.70;75.20
46139;DHT22;32398;49.112;8.598;2022-09-06T07:04:06;19.70;75.20
46139;DHT22;32398;49.112;8.598;2022-09-06T07:06:47;19.70;75.10
46139;DHT22;32398;49.112;8.598;2022-09-06T07:09:15;19.70;75.10
46139;DHT22;32398;49.112;8.598;2022-09-06T07:11:43;19.80;75.20
46139;DHT22;32398;49.112;8.598;2022-09-06T07:14:10;19.80;75.30
46139;DHT22;32398;49.112;8.598;2022-09-06T07:16:37;19.80;75.30
46139;DHT22;32398;49.112;8.598;2022-09-06T07:19:03;19.80;75.30
46139;DHT22;32398;49.112;8.598;2022-09-06T07:21:30;19.80;75.40
46139;DHT22;32398;49.112;8.598;2022-09-06T07:23:56;19.80;75.60
46139;DHT22;32398;49.112;8.598;2022-09-06T07:26:23;19.80;75.60
46139;DHT22;32398;49.112;8.598;2022-09-06T07:28:52;19.80;76.40
46139;DHT22;32398;49.112;8.598;2022-09-06T07:31:18;19.90;75.70
46139;DHT22;32398;49.112;8.598;2022-09-06T07:33:45;19.90;76.40
46139;DHT22;32398;49.112;8.598;2022-09-06T07:36:11;19.90;77.00
46139;DHT22;32398;49.112;8.598;2022-09-06T07:38:38;19.90;77.20
46139;DHT22;32398;49.112;8.598;2022-09-06T07:41:05;19.90;77.20
46139;DHT22;32398;49.112;8.598;2022-09-06T07:43:32;20.00;77.00
46139;DHT22;32398;49.112;8.598;2022-09-06T07:46:01;20.00;76.40
46139;DHT22;32398;49.112;8.598;2022-09-06T07:48:28;20.00;76.40
46139;DHT22;32398;49.112;8.598;2022-09-06T07:51:01;20.00;76.30
46139;DHT22;32398;49.112;8.598;2022-09-06T07:53:28;20.10;76.40
46139;DHT22;32398;49.112;8.598;2022-09-06T07:55:54;20.10;76.30
46139;DHT22;32398;49.112;8.598;2022-09-06T07:58:21;20.10;76.20
46139;DHT22;32398;49.112;8.598;2022-09-06T08:00:48;20.10;76.00
46139;DHT22;32398;49.112;8.598;2022-09-06T08:03:16;20.20;75.90
46139;DHT22;32398;49.112;8.598;2022-09-06T08:05:42;20.20;76.00
46139;DHT22;32398;49.112;8.598;2022-09-06T08:08:09;20.20;75.90
46139;DHT22;32398;49.112;8.598;2022-09-06T08:10:35;20.20;75.70
46139;DHT22;32398;49.112;8.598;2022-09-06T08:13:02;20.20;75.50
46139;DHT22;32398;49.112;8.598;2022-09-06T08:15:28;20.20;75.40
46139;DHT22;32398;49.112;8.598;2022-09-06T08:17:56;20.30;75.40
46139;DHT22;32398;49.112;8.598;2022-09-06T08:20:24;20.30;75.10
46139;DHT22;32398;49.112;8.598;2022-09-06T08:22:50;20.30;75.00
46139;DHT22;32398;49.112;8.598;2022-09-06T08:25:17;20.40;75.00
46139;DHT22;32398;49.112;8.598;2022-09-06T08:27:43;20.40;74.80
46139;DHT22;32398;49.112;8.598;2022-09-06T08:30:10;20.40;74.70
46139;DHT22;32398;49.112;8.598;2022-09-06T08:32:37;20.40;74.50
46139;DHT22;32398;49.112;8.598;2022-09-06T08:35:05;20.50;74.50
46139;DHT22;32398;49.112;8.598;2022-09-06T08:37:33;20.50;74.30
46139;DHT22;32398;49.112;8.598;2022-09-06T08:40:00;20.60;74.20
46139;DHT22;32398;49.112;8.598;2022-09-06T08:42:26;20.60;73.90
46139;DHT22;32398;49.112;8.598;2022-09-06T08:44:53;20.60;73.70
46139;DHT22;32398;49.112;8.598;2022-09-06T08:47:22;20.70;73.50
46139;DHT22;32398;49.112;8.598;2022-09-06T08:49:49;20.80;73.30
46139;DHT22;32398;49.112;8.598;2022-09-06T08:52:20;20.80;73.00
46139;DHT22;32398;49.112;8.598;2022-09-06T08:54:51;20.90;72.80
46139;DHT22;32398;49.112;8.598;2022-09-06T08:57:24;21.00;72.90
46139;DHT22;32398;49.112;8.598;2022-09-06T08:59:56;21.00;72.60
46139;DHT22;32398;49.112;8.598;2022-09-06T09:02:23;21.10;72.40
46139;DHT22;32398;49.112;8.598;2022-09-06T09:04:51;21.10;72.20
46139;DHT22;32398;49.112;8.598;2022-09-06T09:07:22;21.10;72.10
46139;DHT22;32398;49.112;8.598;2022-09-06T09:09:50;21.20;72.00
46139;DHT22;32398;49.112;8.598;2022-09-06T09:12:18;21.30;71.70
46139;DHT22;32398;49.112;8.598;2022-09-06T09:14:47;21.30;71.60
46139;DHT22;32398;49.112;8.598;2022-09-06T09:17:15;21.40;71.50
46139;DHT22;32398;49.112;8.598;2022-09-06T09:19:44;21.50;71.40
46139;DHT22;32398;49.112;8.598;2022-09-06T09:22:11;21.50;71.20
46139;DHT22;32398;49.112;8.598;2022-09-06T09:24:39;21.60;71.00
46139;DHT22;32398;49.112;8.598;2022-09-06T09:27:07;21.60;70.70
46139;DHT22;32398;49.112;8.598;2022-09-06T09:29:43;21.70;70.70
46139;DHT22;32398;49.112;8.598;2022-09-06T09:32:27;21.80;70.60
46139;DHT22;32398;49.112;8.598;2022-09-06T09:34:54;21.80;70.30
46139;DHT22;32398;49.112;8.598;2022-09-06T09:37:22;21.90;70.10
46139;DHT22;32398;49.112;8.598;2022-09-06T09:39:50;22.00;70.10
46139;DHT22;32398;49.112;8.598;2022-09-06T09:42:22;22.00;69.90
46139;DHT22;32398;49.112;8.598;2022-09-06T09:44:51;22.10;69.90
46139;DHT22;32398;49.112;8.598;2022-09-06T09:47:22;22.20;69.80
46139;DHT22;32398;49.112;8.598;2022-09-06T09:49:49;22.20;69.60
46139;DHT22;32398;49.112;8.598;2022-09-06T09:52:16;22.30;69.50
46139;DHT22;32398;49.112;8.598;2022-09-06T09:54:48;22.30;69.40
46139;DHT22;32398;49.112;8.598;2022-09-06T09:57:20;22.40;69.40
46139;DHT22;32398;49.112;8.598;2022-09-06T09:59:49;22.40;69.30
46139;DHT22;32398;49.112;8.598;2022-09-06T10:02:17;22.50;69.20
46139;DHT22;32398;49.112;8.598;2022-09-06T10:04:45;22.50;69.10
46139;DHT22;32398;49.112;8.598;2022-09-06T10:07:14;22.60;69.00
46139;DHT22;32398;49.112;8.598;2022-09-06T10:09:41;22.60;69.00
46139;DHT22;32398;49.112;8.598;2022-09-06T10:12:12;22.70;68.90
46139;DHT22;32398;49.112;8.598;2022-09-06T10:14:41;22.70;68.80
46139;DHT22;32398;49.112;8.598;2022-09-06T10:17:09;22.70;68.70
46139;DHT22;32398;49.112;8.598;2022-09-06T10:19:43;22.80;68.60
46139;DHT22;32398;49.112;8.598;2022-09-06T10:22:19;22.90;68.50
46139;DHT22;32398;49.112;8.598;2022-09-06T10:24:51;22.90;68.30
46139;DHT22;32398;49.112;8.598;2022-09-06T10:27:22;23.00;68.20
46139;DHT22;32398;49.112;8.598;2022-09-06T10:29:53;23.10;68.10
46139;DHT22;32398;49.112;8.598;2022-09-06T10:32:26;23.10;68.00
46139;DHT22;32398;49.112;8.598;2022-09-06T10:35:05;23.10;67.80
46139;DHT22;32398;49.112;8.598;2022-09-06T10:37:46;23.20;67.70
46139;DHT22;32398;49.112;8.598;2022-09-06T10:40:17;23.30;67.70
46139;DHT22;32398;49.112;8.598;2022-09-06T10:42:46;23.30;67.60
46139;DHT22;32398;49.112;8.598;2022-09-06T10:45:22;23.30;67.40
46139;DHT22;32398;49.112;8.598;2022-09-06T10:47:57;23.40;67.30
46139;DHT22;32398;49.112;8.598;2022-09-06T10:50:32;23.40;66.90
46139;DHT22;32398;49.112;8.598;2022-09-06T10:53:02;23.50;66.80
46139;DHT22;32398;49.112;8.598;2022-09-06T10:55:32;23.60;66.60
46139;DHT22;32398;49.112;8.598;2022-09-06T10:57:58;23.60;66.30
46139;DHT22;32398;49.112;8.598;2022-09-06T11:00:30;23.70;66.20
46139;DHT22;32398;49.112;8.598;2022-09-06T11:03:00;23.80;66.00
46139;DHT22;32398;49.112;8.598;2022-09-06T11:05:30;23.90;65.90
46139;DHT22;32398;49.112;8.598;2022-09-06T11:07:59;23.90;66.50
46139;DHT22;32398;49.112;8.598;2022-09-06T11:10:26;24.00;65.50
46139;DHT22;32398;49.112;8.598;2022-09-06T11:12:55;24.10;65.20
46139;DHT22;32398;49.112;8.598;2022-09-06T11:15:22;24.10;65.10
46139;DHT22;32398;49.112;8.598;2022-09-06T11:17:51;24.20;64.80
46139;DHT22;32398;49.112;8.598;2022-09-06T11:20:21;24.30;64.90
46139;DHT22;32398;49.112;8.598;2022-09-06T11:22:56;24.30;64.60
46139;DHT22;32398;49.112;8.598;2022-09-06T11:25:34;24.40;64.50
46139;DHT22;32398;49.112;8.598;2022-09-06T11:28:06;24.50;64.30
46139;DHT22;32398;49.112;8.598;2022-09-06T11:30:34;24.60;64.20
46139;DHT22;32398;49.112;8.598;2022-09-06T11:33:09;24.70;63.90
46139;DHT22;32398;49.112;8.598;2022-09-06T11:35:39;24.70;63.80
46139;DHT22;32398;49.112;8.598;2022-09-06T11:38:10;24.70;63.50
46139;DHT22;32398;49.112;8.598;2022-09-06T11:40:43;24.90;63.40
46139;DHT22;32398;49.112;8.598;2022-09-06T11:43:11;24.90;63.10
46139;DHT22;32398;49.112;8.598;2022-09-06T11:45:40;25.00;63.10
46139;DHT22;32398;49.112;8.598;2022-09-06T11:51:00;25.20;62.70
46139;DHT22;32398;49.112;8.598;2022-09-06T11:53:27;25.30;62.60
46139;DHT22;32398;49.112;8.598;2022-09-06T11:56:08;25.30;62.60
46139;DHT22;32398;49.112;8.598;2022-09-06T11:58:42;25.30;62.40
46139;DHT22;32398;49.112;8.598;2022-09-06T12:03:59;25.50;62.00
46139;DHT22;32398;49.112;8.598;2022-09-06T12:06:28;25.50;61.80
46139;DHT22;32398;49.112;8.598;2022-09-06T12:08:56;25.60;61.90
46139;DHT22;32398;49.112;8.598;2022-09-06T12:11:32;25.60;61.40
46139;DHT22;32398;49.112;8.598;2022-09-06T12:14:00;25.70;61.50
46139;DHT22;32398;49.112;8.598;2022-09-06T12:21:56;26.20;60.50
46139;DHT22;32398;49.112;8.598;2022-09-06T12:27:10;26.80;59.70
46139;DHT22;32398;49.112;8.598;2022-09-06T12:29:37;27.00;59.00
46139;DHT22;32398;49.112;8.598;2022-09-06T12:32:04;27.20;58.90
46139;DHT22;32398;49.112;8.598;2022-09-06T12:34:32;27.40;58.80
46139;DHT22;32398;49.112;8.598;2022-09-06T12:37:02;27.50;58.30
46139;DHT22;32398;49.112;8.598;2022-09-06T12:39:29;27.70;58.10
46139;DHT22;32398;49.112;8.598;2022-09-06T12:41:58;27.80;57.80
46139;DHT22;32398;49.112;8.598;2022-09-06T12:44:27;27.90;57.40
46139;DHT22;32398;49.112;8.598;2022-09-06T12:46:55;28.00;57.30
46139;DHT22;32398;49.112;8.598;2022-09-06T12:49:24;28.10;56.90
46139;DHT22;32398;49.112;8.598;2022-09-06T12:52:03;28.20;56.70
46139;DHT22;32398;49.112;8.598;2022-09-06T12:54:32;28.30;56.40
46139;DHT22;32398;49.112;8.598;2022-09-06T12:57:10;28.30;56.10
46139;DHT22;32398;49.112;8.598;2022-09-06T12:59:36;28.40;56.10
46139;DHT22;32398;49.112;8.598;2022-09-06T13:02:04;28.40;56.10
46139;DHT22;32398;49.112;8.598;2022-09-06T13:04:34;28.50;56.10
46139;DHT22;32398;49.112;8.598;2022-09-06T13:07:04;28.50;55.80
46139;DHT22;32398;49.112;8.598;2022-09-06T13:09:32;28.60;55.70
46139;DHT22;32398;49.112;8.598;2022-09-06T13:12:01;28.60;56.20
46139;DHT22;32398;49.112;8.598;2022-09-06T13:14:29;28.70;55.50
46139;DHT22;32398;49.112;8.598;2022-09-06T13:16:56;28.70;55.50
46139;DHT22;32398;49.112;8.598;2022-09-06T13:19:31;28.80;55.50
46139;DHT22;32398;49.112;8.598;2022-09-06T13:21:58;28.80;55.40
46139;DHT22;32398;49.112;8.598;2022-09-06T13:24:25;28.90;55.10
46139;DHT22;32398;49.112;8.598;2022-09-06T13:26:54;28.90;55.70
46139;DHT22;32398;49.112;8.598;2022-09-06T13:29:21;28.90;55.10
46139;DHT22;32398;49.112;8.598;2022-09-06T13:31:48;29.00;55.00
46139;DHT22;32398;49.112;8.598;2022-09-06T13:34:18;29.00;54.90
46139;DHT22;32398;49.112;8.598;2022-09-06T13:36:47;29.10;54.70
46139;DHT22;32398;49.112;8.598;2022-09-06T13:39:27;29.10;54.30
46139;DHT22;32398;49.112;8.598;2022-09-06T13:41:55;29.10;54.40
46139;DHT22;32398;49.112;8.598;2022-09-06T13:44:28;29.20;54.70
46139;DHT22;32398;49.112;8.598;2022-09-06T13:46:55;29.20;54.50
46139;DHT22;32398;49.112;8.598;2022-09-06T13:49:22;29.20;54.20
46139;DHT22;32398;49.112;8.598;2022-09-06T13:51:49;29.30;54.00
46139;DHT22;32398;49.112;8.598;2022-09-06T13:54:16;29.30;53.40
46139;DHT22;32398;49.112;8.598;2022-09-06T13:56:43;29.30;53.50
46139;DHT22;32398;49.112;8.598;2022-09-06T13:59:11;29.40;53.30
46139;DHT22;32398;49.112;8.598;2022-09-06T14:01:38;29.40;53.40
46139;DHT22;32398;49.112;8.598;2022-09-06T14:04:05;29.40;53.70
46139;DHT22;32398;49.112;8.598;2022-09-06T14:06:32;29.40;53.70
46139;DHT22;32398;49.112;8.598;2022-09-06T14:09:00;29.50;53.50
46139;DHT22;32398;49.112;8.598;2022-09-06T14:11:26;29.50;53.20
46139;DHT22;32398;49.112;8.598;2022-09-06T14:13:53;29.60;53.20
46139;DHT22;32398;49.112;8.598;2022-09-06T14:16:21;29.60;53.10
46139;DHT22;32398;49.112;8.598;2022-09-06T14:18:48;29.60;53.40
46139;DHT22;32398;49.112;8.598;2022-09-06T14:21:16;29.70;53.50
46139;DHT22;32398;49.112;8.598;2022-09-06T14:23:46;29.70;53.70
46139;DHT22;32398;49.112;8.598;2022-09-06T14:26:15;29.80;53.40
46139;DHT22;32398;49.112;8.598;2022-09-06T14:28:43;29.80;53.00
46139;DHT22;32398;49.112;8.598;2022-09-06T14:31:10;29.90;53.00
46139;DHT22;32398;49.112;8.598;2022-09-06T14:33:38;29.90;53.20
46139;DHT22;32398;49.112;8.598;2022-09-06T14:36:06;30.00;53.30
46139;DHT22;32398;49.112;8.598;2022-09-06T14:38:34;30.00;53.20
46139;DHT22;32398;49.112;8.598;2022-09-06T14:41:01;30.00;53.10
46139;DHT22;32398;49.112;8.598;2022-09-06T14:43:28;30.10;53.00
46139;DHT22;32398;49.112;8.598;2022-09-06T14:45:54;30.10;52.80
46139;DHT22;32398;49.112;8.598;2022-09-06T14:48:23;30.10;53.00
46139;DHT22;32398;49.112;8.598;2022-09-06T14:50:55;30.20;52.90
46139;DHT22;32398;49.112;8.598;2022-09-06T14:53:22;30.20;52.60
46139;DHT22;32398;49.112;8.598;2022-09-06T14:55:48;30.20;52.40
46139;DHT22;32398;49.112;8.598;2022-09-06T14:58:15;30.30;52.60
46139;DHT22;32398;49.112;8.598;2022-09-06T15:00:41;30.30;52.50
46139;DHT22;32398;49.112;8.598;2022-09-06T15:03:09;30.30;52.70
46139;DHT22;32398;49.112;8.598;2022-09-06T15:05:36;30.40;52.50
46139;DHT22;32398;49.112;8.598;2022-09-06T15:08:04;30.40;52.80
46139;DHT22;32398;49.112;8.598;2022-09-06T15:10:31;30.40;52.40
46139;DHT22;32398;49.112;8.598;2022-09-06T15:12:57;30.40;52.50
46139;DHT22;32398;49.112;8.598;2022-09-06T15:15:24;30.30;52.30
46139;DHT22;32398;49.112;8.598;2022-09-06T15:17:50;30.30;52.40
46139;DHT22;32398;49.112;8.598;2022-09-06T15:20:17;30.30;52.10
46139;DHT22;32398;49.112;8.598;2022-09-06T15:22:44;30.20;52.30
46139;DHT22;32398;49.112;8.598;2022-09-06T15:25:12;30.20;52.20
46139;DHT22;32398;49.112;8.598;2022-09-06T15:27:38;30.20;52.20
46139;DHT22;32398;49.112;8.598;2022-09-06T15:30:05;30.20;51.50
46139;DHT22;32398;49.112;8.598;2022-09-06T15:32:31;30.10;50.90
46139;DHT22;32398;49.112;8.598;2022-09-06T15:34:58;30.10;51.40
46139;DHT22;32398;49.112;8.598;2022-09-06T15:37:25;30.10;51.00
46139;DHT22;32398;49.112;8.598;2022-09-06T15:39:51;30.10;50.80
46139;DHT22;32398;49.112;8.598;2022-09-06T15:42:19;30.00;51.20
46139;DHT22;32398;49.112;8.598;2022-09-06T15:44:45;30.10;51.70
46139;DHT22;32398;49.112;8.598;2022-09-06T15:47:12;30.00;50.40
46139;DHT22;32398;49.112;8.598;2022-09-06T15:49:39;30.00;50.10